sensor_id;sensor_type;location;lat;lon;timestamp;P1;durP1;ratioP1;P2;durP2;ratioP2
24305;SDS011;12423;48.768;8.850;2024-02-23T00:04:32;0.00;;;0.00;;
24305;SDS011;12423;48.768;8.850;2024-02-23T00:06:59;0.08;;;0.08;;
24305;SDS011;12423;48.768;8.850;2024-02-23T00:09:29;0.00;;;0.00;;
24305;SDS011;12423;48.768;8.850;2024-02-23T00:11:56;0.00;;;0.00;;
24305;SDS011;12423;48.768;8.850;2024-02-23T00:14:25;0.00;;;0.00;;
24305;SDS011;12423;48.768;8.850;2024-02-23T00:16:53;0.10;;;0.10;;
24305;SDS011;12423;48.768;8.850;2024-02-23T00:19:20;0.00;;;0.00;;
24305;SDS011;12423;48.768;8.850;2024-02-23T00:21:48;0.00;;;0.00;;
24305;SDS011;12423;48.768;8.850;2024-02-23T00:24:17;0.00;;;0.00;;
24305;SDS011;12423;48.768;8.850;2024-02-23T00:29:14;0.10;;;0.10;;
24305;SDS011;12423;48.768;8.850;2024-02-23T00:31:43;0.00;;;0.00;;
24305;SDS011;12423;48.768;8.850;2024-02-23T00:34:11;0.00;;;0.00;;
24305;SDS011;12423;48.768;8.850;2024-02-23T00:36:40;0.03;;;0.03;;
24305;SDS011;12423;48.768;8.850;2024-02-23T00:39:08;0.00;;;0.00;;
24305;SDS011;12423;48.768;8.850;2024-02-23T00:41:35;0.00;;;0.00;;
24305;SDS011;12423;48.768;8.850;2024-02-23T00:44:03;0.00;;;0.00;;
24305;SDS011;12423;48.768;8.850;2024-02-23T00:46:31;0.10;;;0.10;;
24305;SDS011;12423;48.768;8.850;2024-02-23T00:49:00;0.10;;;0.10;;
24305;SDS011;12423;48.768;8.850;2024-02-23T00:51:28;0.00;;;0.00;;
24305;SDS011;12423;48.768;8.850;2024-02-23T00:53:56;0.10;;;0.10;;
24305;SDS011;12423;48.768;8.850;2024-02-23T00:56:23;0.30;;;0.30;;
24305;SDS011;12423;48.768;8.850;2024-02-23T00:59:01;0.00;;;0.00;;
24305;SDS011;12423;48.768;8.850;2024-02-23T01:01:28;0.10;;;0.10;;
24305;SDS011;12423;48.768;8.850;2024-02-23T01:03:56;0.00;;;0.00;;
24305;SDS011;12423;48.768;8.850;2024-02-23T01:06:25;0.00;;;0.00;;
24305;SDS011;12423;48.768;8.850;2024-02-23T01:08:54;0.00;;;0.00;;
24305;SDS011;12423;48.768;8.850;2024-02-23T01:11:22;0.00;;;0.00;;
24305;SDS011;12423;48.768;8.850;2024-02-23T01:13:50;0.10;;;0.10;;
24305;SDS011;12423;48.768;8.850;2024-02-23T01:16:17;0.03;;;0.03;;
24305;SDS011;12423;48.768;8.850;2024-02-23T01:18:45;0.00;;;0.00;;
24305;SDS011;12423;48.768;8.850;2024-02-23T01:21:13;0.10;;;0.10;;
24305;SDS011;12423;48.768;8.850;2024-02-23T01:23:42;0.10;;;0.10;;
24305;SDS011;12423;48.768;8.850;2024-02-23T01:26:10;0.20;;;0.20;;
24305;SDS011;12423;48.768;8.850;2024-02-23T01:28:38;0.00;;;0.00;;
24305;SDS011;12423;48.768;8.850;2024-02-23T01:31:07;0.03;;;0.03;;
24305;SDS011;12423;48.768;8.850;2024-02-23T01:33:37;0.00;;;0.00;;
24305;SDS011;12423;48.768;8.850;2024-02-23T01:36:05;0.10;;;0.10;;
24305;SDS011;12423;48.768;8.850;2024-02-23T01:38:32;0.00;;;0.00;;
24305;SDS011;12423;48.768;8.850;2024-02-23T01:41:02;0.00;;;0.00;;
24305;SDS011;12423;48.768;8.850;2024-02-23T01:43:29;0.00;;;0.00;;
24305;SDS011;12423;48.768;8.850;2024-02-23T01:45:57;0.10;;;0.10;;
24305;SDS011;12423;48.768;8.850;2024-02-23T01:48:24;0.00;;;0.00;;
24305;SDS011;12423;48.768;8.850;2024-02-23T01:50:52;0.08;;;0.08;;
24305;SDS011;12423;48.768;8.850;2024-02-23T01:53:21;0.10;;;0.10;;
24305;SDS011;12423;48.768;8.850;2024-02-23T01:55:51;0.00;;;0.00;;
24305;SDS011;12423;48.768;8.850;2024-02-23T01:58:20;0.10;;;0.10;;
24305;SDS011;12423;48.768;8.850;2024-02-23T02:00:48;0.00;;;0.00;;
24305;SDS011;12423;48.768;8.850;2024-02-23T02:03:15;0.00;;;0.00;;
24305;SDS011;12423;48.768;8.850;2024-02-23T02:05:43;0.00;;;0.00;;
24305;SDS011;12423;48.768;8.850;2024-02-23T02:08:11;0.10;;;0.10;;
24305;SDS011;12423;48.768;8.850;2024-02-23T02:10:39;0.00;;;0.00;;
24305;SDS011;12423;48.768;8.850;2024-02-23T02:13:06;0.00;;;0.00;;
24305;SDS011;12423;48.768;8.850;2024-02-23T02:15:35;0.10;;;0.10;;
24305;SDS011;12423;48.768;8.850;2024-02-23T02:18:03;0.00;;;0.00;;
24305;SDS011;12423;48.768;8.850;2024-02-23T02:20:32;0.00;;;0.00;;
24305;SDS011;12423;48.768;8.850;2024-02-23T02:23:00;0.10;;;0.10;;
24305;SDS011;12423;48.768;8.850;2024-02-23T02:25:27;0.10;;;0.10;;
24305;SDS011;12423;48.768;8.850;2024-02-23T02:27:55;0.00;;;0.00;;
24305;SDS011;12423;48.768;8.850;2024-02-23T02:30:22;0.00;;;0.00;;
24305;SDS011;12423;48.768;8.850;2024-02-23T02:32:51;0.00;;;0.00;;
24305;SDS011;12423;48.768;8.850;2024-02-23T02:35:19;0.10;;;0.10;;
24305;SDS011;12423;48.768;8.850;2024-02-23T02:37:46;0.10;;;0.10;;
24305;SDS011;12423;48.768;8.850;2024-02-23T02:40:14;0.00;;;0.00;;
24305;SDS011;12423;48.768;8.850;2024-02-23T02:42:42;0.10;;;0.10;;
24305;SDS011;12423;48.768;8.850;2024-02-23T02:45:09;0.10;;;0.10;;
24305;SDS011;12423;48.768;8.850;2024-02-23T02:47:36;0.08;;;0.08;;
24305;SDS011;12423;48.768;8.850;2024-02-23T02:50:06;0.10;;;0.10;;
24305;SDS011;12423;48.768;8.850;2024-02-23T02:52:33;0.45;;;0.45;;
24305;SDS011;12423;48.768;8.850;2024-02-23T02:55:01;0.00;;;0.00;;
24305;SDS011;12423;48.768;8.850;2024-02-23T02:57:29;0.00;;;0.00;;
24305;SDS011;12423;48.768;8.850;2024-02-23T02:59:57;0.00;;;0.00;;
24305;SDS011;12423;48.768;8.850;2024-02-23T03:02:24;0.00;;;0.00;;
24305;SDS011;12423;48.768;8.850;2024-02-23T03:04:52;0.08;;;0.08;;
24305;SDS011;12423;48.768;8.850;2024-02-23T03:07:23;0.00;;;0.00;;
24305;SDS011;12423;48.768;8.850;2024-02-23T03:09:50;0.38;;;0.38;;
24305;SDS011;12423;48.768;8.850;2024-02-23T03:12:18;0.10;;;0.10;;
24305;SDS011;12423;48.768;8.850;2024-02-23T03:14:45;0.10;;;0.10;;
24305;SDS011;12423;48.768;8.850;2024-02-23T03:17:13;0.10;;;0.10;;
24305;SDS011;12423;48.768;8.850;2024-02-23T03:19:41;0.00;;;0.00;;
24305;SDS011;12423;48.768;8.850;2024-02-23T03:22:08;0.00;;;0.00;;
24305;SDS011;12423;48.768;8.850;2024-02-23T03:24:37;0.10;;;0.10;;
24305;SDS011;12423;48.768;8.850;2024-02-23T03:27:05;0.00;;;0.00;;
24305;SDS011;12423;48.768;8.850;2024-02-23T03:29:32;0.00;;;0.00;;
24305;SDS011;12423;48.768;8.850;2024-02-23T03:32:00;0.10;;;0.10;;
24305;SDS011;12423;48.768;8.850;2024-02-23T03:34:28;0.00;;;0.00;;
24305;SDS011;12423;48.768;8.850;2024-02-23T03:36:55;0.05;;;0.05;;
24305;SDS011;12423;48.768;8.850;2024-02-23T03:39:24;0.10;;;0.10;;
24305;SDS011;12423;48.768;8.850;2024-02-23T03:41:53;0.00;;;0.00;;
24305;SDS011;12423;48.768;8.850;2024-02-23T03:44:21;0.10;;;0.10;;
24305;SDS011;12423;48.768;8.850;2024-02-23T03:46:49;0.00;;;0.00;;
24305;SDS011;12423;48.768;8.850;2024-02-23T03:49:17;0.10;;;0.10;;
24305;SDS011;12423;48.768;8.850;2024-02-23T03:51:44;0.03;;;0.03;;
24305;SDS011;12423;48.768;8.850;2024-02-23T03:54:12;0.00;;;0.00;;
24305;SDS011;12423;48.768;8.850;2024-02-23T03:56:40;0.10;;;0.10;;
24305;SDS011;12423;48.768;8.850;2024-02-23T03:59:09;0.10;;;0.10;;
24305;SDS011;12423;48.768;8.850;2024-02-23T04:04:05;0.03;;;0.03;;
24305;SDS011;12423;48.768;8.850;2024-02-23T04:06:33;0.10;;;0.10;;
24305;SDS011;12423;48.768;8.850;2024-02-23T04:09:01;0.00;;;0.00;;
24305;SDS011;12423;48.768;8.850;2024-02-23T04:11:31;0.00;;;0.00;;
24305;SDS011;12423;48.768;8.850;2024-02-23T04:13:58;0.10;;;0.10;;
24305;SDS011;12423;48.768;8.850;2024-02-23T04:16:28;0.00;;;0.00;;
24305;SDS011;12423;48.768;8.850;2024-02-23T04:18:55;0.00;;;0.00;;
24305;SDS011;12423;48.768;8.850;2024-02-23T04:21:23;0.20;;;0.20;;
24305;SDS011;12423;48.768;8.850;2024-02-23T04:23:51;0.10;;;0.10;;
24305;SDS011;12423;48.768;8.850;2024-02-23T04:26:18;0.10;;;0.10;;
24305;SDS011;12423;48.768;8.850;2024-02-23T04:28:46;0.10;;;0.10;;
24305;SDS011;12423;48.768;8.850;2024-02-23T04:31:14;0.10;;;0.10;;
24305;SDS011;12423;48.768;8.850;2024-02-23T04:33:42;0.00;;;0.00;;
24305;SDS011;12423;48.768;8.850;2024-02-23T04:36:10;0.00;;;0.00;;
24305;SDS011;12423;48.768;8.850;2024-02-23T04:38:38;0.00;;;0.00;;
24305;SDS011;12423;48.768;8.850;2024-02-23T04:41:05;0.00;;;0.00;;
24305;SDS011;12423;48.768;8.850;2024-02-23T04:43:33;0.00;;;0.00;;
24305;SDS011;12423;48.768;8.850;2024-02-23T04:46:01;0.00;;;0.00;;
24305;SDS011;12423;48.768;8.850;2024-02-23T04:48:28;0.05;;;0.05;;
24305;SDS011;12423;48.768;8.850;2024-02-23T04:50:58;0.10;;;0.10;;
24305;SDS011;12423;48.768;8.850;2024-02-23T04:55:55;0.03;;;0.03;;
24305;SDS011;12423;48.768;8.850;2024-02-23T04:58:22;0.00;;;0.00;;
24305;SDS011;12423;48.768;8.850;2024-02-23T05:00:51;0.00;;;0.00;;
24305;SDS011;12423;48.768;8.850;2024-02-23T05:03:18;0.00;;;0.00;;
24305;SDS011;12423;48.768;8.850;2024-02-23T05:05:46;0.00;;;0.00;;
24305;SDS011;12423;48.768;8.850;2024-02-23T05:08:15;0.03;;;0.03;;
24305;SDS011;12423;48.768;8.850;2024-02-23T05:10:43;0.00;;;0.00;;
24305;SDS011;12423;48.768;8.850;2024-02-23T05:13:11;0.10;;;0.10;;
24305;SDS011;12423;48.768;8.850;2024-02-23T05:15:38;0.00;;;0.00;;
24305;SDS011;12423;48.768;8.850;2024-02-23T05:18:06;0.00;;;0.00;;
24305;SDS011;12423;48.768;8.850;2024-02-23T05:20:33;0.10;;;0.10;;
24305;SDS011;12423;48.768;8.850;2024-02-23T05:23:01;0.00;;;0.00;;
24305;SDS011;12423;48.768;8.850;2024-02-23T05:25:30;0.10;;;0.10;;
24305;SDS011;12423;48.768;8.850;2024-02-23T05:27:57;0.00;;;0.00;;
24305;SDS011;12423;48.768;8.850;2024-02-23T05:30:25;0.00;;;0.00;;
24305;SDS011;12423;48.768;8.850;2024-02-23T05:32:53;0.10;;;0.10;;
24305;SDS011;12423;48.768;8.850;2024-02-23T05:35:21;0.10;;;0.10;;
24305;SDS011;12423;48.768;8.850;2024-02-23T05:37:49;0.00;;;0.00;;
24305;SDS011;12423;48.768;8.850;2024-02-23T05:40:17;0.00;;;0.00;;
24305;SDS011;12423;48.768;8.850;2024-02-23T05:42:46;0.15;;;0.15;;
24305;SDS011;12423;48.768;8.850;2024-02-23T05:45:13;0.10;;;0.10;;
24305;SDS011;12423;48.768;8.850;2024-02-23T05:47:41;0.05;;;0.05;;
24305;SDS011;12423;48.768;8.850;2024-02-23T05:50:13;0.00;;;0.00;;
24305;SDS011;12423;48.768;8.850;2024-02-23T05:52:41;0.10;;;0.10;;
24305;SDS011;12423;48.768;8.850;2024-02-23T05:55:09;0.00;;;0.00;;
24305;SDS011;12423;48.768;8.850;2024-02-23T05:57:36;0.10;;;0.10;;
24305;SDS011;12423;48.768;8.850;2024-02-23T06:00:06;0.00;;;0.00;;
24305;SDS011;12423;48.768;8.850;2024-02-23T06:02:37;0.00;;;0.00;;
24305;SDS011;12423;48.768;8.850;2024-02-23T06:05:05;0.10;;;0.10;;
24305;SDS011;12423;48.768;8.850;2024-02-23T06:10:03;0.00;;;0.00;;
24305;SDS011;12423;48.768;8.850;2024-02-23T06:12:31;0.10;;;0.10;;
24305;SDS011;12423;48.768;8.850;2024-02-23T06:14:58;0.00;;;0.00;;
24305;SDS011;12423;48.768;8.850;2024-02-23T06:17:27;0.10;;;0.10;;
24305;SDS011;12423;48.768;8.850;2024-02-23T06:19:55;0.10;;;0.10;;
24305;SDS011;12423;48.768;8.850;2024-02-23T06:22:25;0.10;;;0.10;;
24305;SDS011;12423;48.768;8.850;2024-02-23T06:24:52;0.10;;;0.10;;
24305;SDS011;12423;48.768;8.850;2024-02-23T06:27:20;0.03;;;0.03;;
24305;SDS011;12423;48.768;8.850;2024-02-23T06:29:48;0.10;;;0.10;;
24305;SDS011;12423;48.768;8.850;2024-02-23T06:32:16;0.10;;;0.10;;
24305;SDS011;12423;48.768;8.850;2024-02-23T06:34:45;0.00;;;0.00;;
24305;SDS011;12423;48.768;8.850;2024-02-23T06:37:13;0.00;;;0.00;;
24305;SDS011;12423;48.768;8.850;2024-02-23T06:39:41;0.75;;;0.75;;
24305;SDS011;12423;48.768;8.850;2024-02-23T06:42:08;0.00;;;0.00;;
24305;SDS011;12423;48.768;8.850;2024-02-23T06:44:36;0.10;;;0.10;;
24305;SDS011;12423;48.768;8.850;2024-02-23T06:47:04;0.10;;;0.10;;
24305;SDS011;12423;48.768;8.850;2024-02-23T06:49:32;0.05;;;0.05;;
24305;SDS011;12423;48.768;8.850;2024-02-23T06:52:01;0.00;;;0.00;;
24305;SDS011;12423;48.768;8.850;2024-02-23T06:56:56;0.10;;;0.10;;
24305;SDS011;12423;48.768;8.850;2024-02-23T06:59:24;0.10;;;0.10;;
24305;SDS011;12423;48.768;8.850;2024-02-23T07:01:52;0.00;;;0.00;;
24305;SDS011;12423;48.768;8.850;2024-02-23T07:04:20;0.10;;;0.10;;
24305;SDS011;12423;48.768;8.850;2024-02-23T07:06:47;0.10;;;0.10;;
24305;SDS011;12423;48.768;8.850;2024-02-23T07:09:16;0.08;;;0.08;;
24305;SDS011;12423;48.768;8.850;2024-02-23T07:11:44;0.10;;;0.10;;
24305;SDS011;12423;48.768;8.850;2024-02-23T07:14:12;0.10;;;0.10;;
24305;SDS011;12423;48.768;8.850;2024-02-23T07:16:40;0.25;;;0.25;;
24305;SDS011;12423;48.768;8.850;2024-02-23T07:19:08;1.45;;;0.93;;
24305;SDS011;12423;48.768;8.850;2024-02-23T07:21:36;0.10;;;0.10;;
24305;SDS011;12423;48.768;8.850;2024-02-23T07:24:08;0.00;;;0.00;;
24305;SDS011;12423;48.768;8.850;2024-02-23T07:26:37;0.10;;;0.10;;
24305;SDS011;12423;48.768;8.850;2024-02-23T07:29:05;0.10;;;0.10;;
24305;SDS011;12423;48.768;8.850;2024-02-23T07:31:33;0.00;;;0.00;;
24305;SDS011;12423;48.768;8.850;2024-02-23T07:34:00;0.20;;;0.20;;
24305;SDS011;12423;48.768;8.850;2024-02-23T07:36:28;0.47;;;0.47;;
24305;SDS011;12423;48.768;8.850;2024-02-23T07:38:56;0.08;;;0.08;;
24305;SDS011;12423;48.768;8.850;2024-02-23T07:41:23;0.03;;;0.03;;
24305;SDS011;12423;48.768;8.850;2024-02-23T07:43:52;0.10;;;0.10;;
24305;SDS011;12423;48.768;8.850;2024-02-23T07:46:20;0.30;;;0.30;;
24305;SDS011;12423;48.768;8.850;2024-02-23T07:48:52;0.47;;;0.47;;
24305;SDS011;12423;48.768;8.850;2024-02-23T07:51:20;0.30;;;0.30;;
24305;SDS011;12423;48.768;8.850;2024-02-23T07:53:48;0.98;;;0.98;;
24305;SDS011;12423;48.768;8.850;2024-02-23T07:56:15;0.10;;;0.10;;
24305;SDS011;12423;48.768;8.850;2024-02-23T07:58:43;0.13;;;0.13;;
24305;SDS011;12423;48.768;8.850;2024-02-23T08:01:12;0.00;;;0.00;;
24305;SDS011;12423;48.768;8.850;2024-02-23T08:03:39;0.10;;;0.10;;
24305;SDS011;12423;48.768;8.850;2024-02-23T08:06:09;0.10;;;0.10;;
24305;SDS011;12423;48.768;8.850;2024-02-23T08:08:39;0.10;;;0.10;;
24305;SDS011;12423;48.768;8.850;2024-02-23T08:11:07;0.03;;;0.03;;
24305;SDS011;12423;48.768;8.850;2024-02-23T08:13:35;0.10;;;0.10;;
24305;SDS011;12423;48.768;8.850;2024-02-23T08:16:02;0.10;;;0.10;;
24305;SDS011;12423;48.768;8.850;2024-02-23T08:18:31;0.10;;;0.10;;
24305;SDS011;12423;48.768;8.850;2024-02-23T08:20:59;0.10;;;0.10;;
24305;SDS011;12423;48.768;8.850;2024-02-23T08:23:28;0.10;;;0.10;;
24305;SDS011;12423;48.768;8.850;2024-02-23T08:25:56;0.28;;;0.10;;
24305;SDS011;12423;48.768;8.850;2024-02-23T08:28:24;0.10;;;0.10;;
24305;SDS011;12423;48.768;8.850;2024-02-23T08:30:52;0.13;;;0.13;;
24305;SDS011;12423;48.768;8.850;2024-02-23T08:33:20;0.10;;;0.10;;
24305;SDS011;12423;48.768;8.850;2024-02-23T08:35:49;0.00;;;0.00;;
24305;SDS011;12423;48.768;8.850;2024-02-23T08:38:16;0.10;;;0.10;;
24305;SDS011;12423;48.768;8.850;2024-02-23T08:40:44;0.10;;;0.10;;
24305;SDS011;12423;48.768;8.850;2024-02-23T08:43:13;0.10;;;0.10;;
24305;SDS011;12423;48.768;8.850;2024-02-23T08:45:40;0.27;;;0.27;;
24305;SDS011;12423;48.768;8.850;2024-02-23T08:48:08;0.00;;;0.00;;
24305;SDS011;12423;48.768;8.850;2024-02-23T08:50:35;0.00;;;0.00;;
24305;SDS011;12423;48.768;8.850;2024-02-23T08:53:06;0.10;;;0.10;;
24305;SDS011;12423;48.768;8.850;2024-02-23T08:55:33;0.10;;;0.10;;
24305;SDS011;12423;48.768;8.850;2024-02-23T08:58:01;0.00;;;0.00;;
24305;SDS011;12423;48.768;8.850;2024-02-23T09:00:28;0.10;;;0.10;;
24305;SDS011;12423;48.768;8.850;2024-02-23T09:02:56;0.10;;;0.10;;
24305;SDS011;12423;48.768;8.850;2024-02-23T09:05:23;0.10;;;0.10;;
24305;SDS011;12423;48.768;8.850;2024-02-23T09:07:51;0.10;;;0.10;;
24305;SDS011;12423;48.768;8.850;2024-02-23T09:10:21;0.10;;;0.10;;
24305;SDS011;12423;48.768;8.850;2024-02-23T09:12:48;0.10;;;0.10;;
24305;SDS011;12423;48.768;8.850;2024-02-23T09:15:16;0.10;;;0.10;;
24305;SDS011;12423;48.768;8.850;2024-02-23T09:17:43;0.10;;;0.10;;
24305;SDS011;12423;48.768;8.850;2024-02-23T09:20:11;0.00;;;0.00;;
24305;SDS011;12423;48.768;8.850;2024-02-23T09:22:39;0.00;;;0.00;;
24305;SDS011;12423;48.768;8.850;2024-02-23T09:25:07;0.00;;;0.00;;
24305;SDS011;12423;48.768;8.850;2024-02-23T09:27:36;0.10;;;0.10;;
24305;SDS011;12423;48.768;8.850;2024-02-23T09:30:10;0.95;;;0.95;;
24305;SDS011;12423;48.768;8.850;2024-02-23T09:32:37;0.00;;;0.00;;
24305;SDS011;12423;48.768;8.850;2024-02-23T09:35:05;0.00;;;0.00;;
24305;SDS011;12423;48.768;8.850;2024-02-23T09:37:33;0.10;;;0.10;;
24305;SDS011;12423;48.768;8.850;2024-02-23T09:40:00;0.00;;;0.00;;
24305;SDS011;12423;48.768;8.850;2024-02-23T09:42:28;0.00;;;0.00;;
24305;SDS011;12423;48.768;8.850;2024-02-23T09:45:00;0.00;;;0.00;;
24305;SDS011;12423;48.768;8.850;2024-02-23T09:49:55;0.10;;;0.10;;
24305;SDS011;12423;48.768;8.850;2024-02-23T09:52:23;0.00;;;0.00;;
24305;SDS011;12423;48.768;8.850;2024-02-23T09:54:50;0.00;;;0.00;;
24305;SDS011;12423;48.768;8.850;2024-02-23T09:57:19;0.10;;;0.10;;
24305;SDS011;12423;48.768;8.850;2024-02-23T09:59:47;0.10;;;0.10;;
24305;SDS011;12423;48.768;8.850;2024-02-23T10:02:17;0.10;;;0.10;;
24305;SDS011;12423;48.768;8.850;2024-02-23T10:07:14;0.10;;;0.10;;
24305;SDS011;12423;48.768;8.850;2024-02-23T10:09:43;0.00;;;0.00;;
24305;SDS011;12423;48.768;8.850;2024-02-23T10:12:10;0.10;;;0.10;;
24305;SDS011;12423;48.768;8.850;2024-02-23T10:14:38;0.00;;;0.00;;
24305;SDS011;12423;48.768;8.850;2024-02-23T10:17:08;0.08;;;0.08;;
24305;SDS011;12423;48.768;8.850;2024-02-23T10:19:37;0.70;;;0.50;;
24305;SDS011;12423;48.768;8.850;2024-02-23T10:22:04;3.60;;;0.77;;
24305;SDS011;12423;48.768;8.850;2024-02-23T10:24:32;6.50;;;1.10;;
24305;SDS011;12423;48.768;8.850;2024-02-23T10:27:00;3.75;;;1.05;;
24305;SDS011;12423;48.768;8.850;2024-02-23T10:29:27;3.80;;;1.00;;
24305;SDS011;12423;48.768;8.850;2024-02-23T10:31:56;1.88;;;0.82;;
24305;SDS011;12423;48.768;8.850;2024-02-23T10:34:24;2.55;;;0.93;;
24305;SDS011;12423;48.768;8.850;2024-02-23T10:36:55;6.35;;;1.27;;
24305;SDS011;12423;48.768;8.850;2024-02-23T10:39:23;3.50;;;1.00;;
24305;SDS011;12423;48.768;8.850;2024-02-23T10:41:57;5.40;;;1.13;;
24305;SDS011;12423;48.768;8.850;2024-02-23T10:44:26;2.83;;;1.00;;
24305;SDS011;12423;48.768;8.850;2024-02-23T10:46:54;1.95;;;0.95;;
24305;SDS011;12423;48.768;8.850;2024-02-23T10:49:23;1.98;;;0.80;;
24305;SDS011;12423;48.768;8.850;2024-02-23T10:51:53;2.90;;;0.80;;
24305;SDS011;12423;48.768;8.850;2024-02-23T10:54:23;5.35;;;1.08;;
24305;SDS011;12423;48.768;8.850;2024-02-23T10:56:50;8.88;;;1.00;;
24305;SDS011;12423;48.768;8.850;2024-02-23T10:59:18;1.50;;;0.60;;
24305;SDS011;12423;48.768;8.850;2024-02-23T11:01:49;2.30;;;0.73;;
24305;SDS011;12423;48.768;8.850;2024-02-23T11:04:17;2.90;;;0.90;;
24305;SDS011;12423;48.768;8.850;2024-02-23T11:06:48;1.52;;;0.55;;
24305;SDS011;12423;48.768;8.850;2024-02-23T11:09:17;4.57;;;0.90;;
24305;SDS011;12423;48.768;8.850;2024-02-23T11:11:53;5.57;;;0.75;;
24305;SDS011;12423;48.768;8.850;2024-02-23T11:14:29;1.45;;;0.45;;
24305;SDS011;12423;48.768;8.850;2024-02-23T11:16:56;2.78;;;0.80;;
24305;SDS011;12423;48.768;8.850;2024-02-23T11:19:31;2.47;;;0.80;;
24305;SDS011;12423;48.768;8.850;2024-02-23T11:21:59;3.30;;;0.95;;
24305;SDS011;12423;48.768;8.850;2024-02-23T11:24:28;7.28;;;1.63;;
24305;SDS011;12423;48.768;8.850;2024-02-23T11:26:57;3.03;;;0.80;;
24305;SDS011;12423;48.768;8.850;2024-02-23T11:29:26;6.72;;;0.80;;
24305;SDS011;12423;48.768;8.850;2024-02-23T11:32:36;6.75;;;1.17;;
24305;SDS011;12423;48.768;8.850;2024-02-23T11:35:05;3.63;;;0.75;;
24305;SDS011;12423;48.768;8.850;2024-02-23T11:37:43;3.13;;;0.70;;
24305;SDS011;12423;48.768;8.850;2024-02-23T11:40:11;6.50;;;1.05;;
24305;SDS011;12423;48.768;8.850;2024-02-23T11:42:39;3.53;;;0.82;;
24305;SDS011;12423;48.768;8.850;2024-02-23T11:45:09;4.75;;;1.05;;
24305;SDS011;12423;48.768;8.850;2024-02-23T11:47:39;3.38;;;0.68;;
24305;SDS011;12423;48.768;8.850;2024-02-23T11:50:08;4.63;;;0.95;;
24305;SDS011;12423;48.768;8.850;2024-02-23T11:55:03;3.10;;;0.65;;
24305;SDS011;12423;48.768;8.850;2024-02-23T11:57:31;4.75;;;1.00;;
24305;SDS011;12423;48.768;8.850;2024-02-23T12:00:12;1.90;;;0.70;;
24305;SDS011;12423;48.768;8.850;2024-02-23T12:02:42;5.60;;;1.05;;
24305;SDS011;12423;48.768;8.850;2024-02-23T12:05:11;5.80;;;0.90;;
24305;SDS011;12423;48.768;8.850;2024-02-23T12:07:38;1.85;;;0.68;;
24305;SDS011;12423;48.768;8.850;2024-02-23T12:10:09;3.70;;;0.90;;
24305;SDS011;12423;48.768;8.850;2024-02-23T12:12:37;3.72;;;0.75;;
24305;SDS011;12423;48.768;8.850;2024-02-23T12:15:05;2.85;;;0.68;;
24305;SDS011;12423;48.768;8.850;2024-02-23T12:17:35;3.15;;;1.00;;
24305;SDS011;12423;48.768;8.850;2024-02-23T12:20:05;4.22;;;0.88;;
24305;SDS011;12423;48.768;8.850;2024-02-23T12:22:34;5.38;;;1.15;;
24305;SDS011;12423;48.768;8.850;2024-02-23T12:25:02;7.63;;;0.90;;
24305;SDS011;12423;48.768;8.850;2024-02-23T12:27:30;1.67;;;0.77;;
24305;SDS011;12423;48.768;8.850;2024-02-23T12:29:58;2.47;;;0.80;;
24305;SDS011;12423;48.768;8.850;2024-02-23T12:32:26;4.18;;;0.98;;
24305;SDS011;12423;48.768;8.850;2024-02-23T12:34:53;2.63;;;0.82;;
24305;SDS011;12423;48.768;8.850;2024-02-23T12:37:22;1.58;;;0.65;;
24305;SDS011;12423;48.768;8.850;2024-02-23T12:39:50;4.60;;;0.85;;
24305;SDS011;12423;48.768;8.850;2024-02-23T12:42:18;3.35;;;0.82;;
24305;SDS011;12423;48.768;8.850;2024-02-23T12:44:45;1.65;;;0.80;;
24305;SDS011;12423;48.768;8.850;2024-02-23T12:47:13;3.17;;;0.80;;
24305;SDS011;12423;48.768;8.850;2024-02-23T12:49:41;3.85;;;0.95;;
24305;SDS011;12423;48.768;8.850;2024-02-23T12:52:11;3.90;;;0.93;;
24305;SDS011;12423;48.768;8.850;2024-02-23T12:54:40;2.92;;;0.80;;
24305;SDS011;12423;48.768;8.850;2024-02-23T12:57:08;3.25;;;0.95;;
24305;SDS011;12423;48.768;8.850;2024-02-23T12:59:35;2.92;;;0.85;;
24305;SDS011;12423;48.768;8.850;2024-02-23T13:02:03;3.50;;;1.00;;
24305;SDS011;12423;48.768;8.850;2024-02-23T13:04:32;2.95;;;0.98;;
24305;SDS011;12423;48.768;8.850;2024-02-23T13:07:02;2.42;;;0.90;;
24305;SDS011;12423;48.768;8.850;2024-02-23T13:09:30;5.93;;;0.90;;
24305;SDS011;12423;48.768;8.850;2024-02-23T13:11:59;4.32;;;1.40;;
24305;SDS011;12423;48.768;8.850;2024-02-23T13:14:26;4.75;;;0.90;;
24305;SDS011;12423;48.768;8.850;2024-02-23T13:16:54;2.83;;;1.00;;
24305;SDS011;12423;48.768;8.850;2024-02-23T13:19:22;6.25;;;0.90;;
24305;SDS011;12423;48.768;8.850;2024-02-23T13:21:49;4.63;;;0.93;;
24305;SDS011;12423;48.768;8.850;2024-02-23T13:24:17;6.22;;;1.13;;
24305;SDS011;12423;48.768;8.850;2024-02-23T13:26:44;3.05;;;0.93;;
24305;SDS011;12423;48.768;8.850;2024-02-23T13:29:13;6.25;;;1.17;;
24305;SDS011;12423;48.768;8.850;2024-02-23T13:31:41;2.75;;;0.60;;
24305;SDS011;12423;48.768;8.850;2024-02-23T13:34:09;2.75;;;0.93;;
24305;SDS011;12423;48.768;8.850;2024-02-23T13:36:37;9.32;;;1.60;;
24305;SDS011;12423;48.768;8.850;2024-02-23T13:42:53;3.67;;;1.05;;
24305;SDS011;12423;48.768;8.850;2024-02-23T13:45:21;5.40;;;1.10;;
24305;SDS011;12423;48.768;8.850;2024-02-23T13:47:57;6.13;;;0.85;;
24305;SDS011;12423;48.768;8.850;2024-02-23T13:50:25;5.65;;;1.10;;
24305;SDS011;12423;48.768;8.850;2024-02-23T13:52:53;3.00;;;0.77;;
24305;SDS011;12423;48.768;8.850;2024-02-23T13:55:21;4.88;;;1.00;;
24305;SDS011;12423;48.768;8.850;2024-02-23T13:57:51;6.78;;;0.85;;
24305;SDS011;12423;48.768;8.850;2024-02-23T14:00:19;3.35;;;0.73;;
24305;SDS011;12423;48.768;8.850;2024-02-23T14:02:49;4.20;;;0.73;;
24305;SDS011;12423;48.768;8.850;2024-02-23T14:05:16;2.28;;;0.70;;
24305;SDS011;12423;48.768;8.850;2024-02-23T14:07:45;3.83;;;1.02;;
24305;SDS011;12423;48.768;8.850;2024-02-23T14:10:12;3.95;;;0.75;;
24305;SDS011;12423;48.768;8.850;2024-02-23T14:12:40;4.32;;;0.70;;
24305;SDS011;12423;48.768;8.850;2024-02-23T14:15:08;5.57;;;1.20;;
24305;SDS011;12423;48.768;8.850;2024-02-23T14:17:36;5.90;;;1.10;;
24305;SDS011;12423;48.768;8.850;2024-02-23T14:20:06;3.83;;;0.80;;
24305;SDS011;12423;48.768;8.850;2024-02-23T14:22:34;5.00;;;1.10;;
24305;SDS011;12423;48.768;8.850;2024-02-23T14:25:01;4.32;;;0.82;;
24305;SDS011;12423;48.768;8.850;2024-02-23T14:27:29;3.38;;;0.85;;
24305;SDS011;12423;48.768;8.850;2024-02-23T14:29:57;4.68;;;1.17;;
24305;SDS011;12423;48.768;8.850;2024-02-23T14:32:25;2.75;;;0.70;;
24305;SDS011;12423;48.768;8.850;2024-02-23T14:34:53;4.10;;;0.88;;
24305;SDS011;12423;48.768;8.850;2024-02-23T14:37:22;2.97;;;0.60;;
24305;SDS011;12423;48.768;8.850;2024-02-23T14:39:50;5.93;;;1.63;;
24305;SDS011;12423;48.768;8.850;2024-02-23T14:42:18;8.63;;;1.20;;
24305;SDS011;12423;48.768;8.850;2024-02-23T14:44:46;7.60;;;0.80;;
24305;SDS011;12423;48.768;8.850;2024-02-23T14:47:14;6.63;;;1.02;;
24305;SDS011;12423;48.768;8.850;2024-02-23T14:49:41;3.25;;;0.60;;
24305;SDS011;12423;48.768;8.850;2024-02-23T14:52:09;1.90;;;0.80;;
24305;SDS011;12423;48.768;8.850;2024-02-23T14:54:38;3.38;;;0.80;;
24305;SDS011;12423;48.768;8.850;2024-02-23T14:57:05;6.85;;;1.10;;
24305;SDS011;12423;48.768;8.850;2024-02-23T14:59:34;5.20;;;0.60;;
24305;SDS011;12423;48.768;8.850;2024-02-23T15:02:02;4.40;;;0.93;;
24305;SDS011;12423;48.768;8.850;2024-02-23T15:04:30;2.95;;;0.63;;
24305;SDS011;12423;48.768;8.850;2024-02-23T15:06:58;5.80;;;1.10;;
24305;SDS011;12423;48.768;8.850;2024-02-23T15:09:25;3.30;;;0.90;;
24305;SDS011;12423;48.768;8.850;2024-02-23T15:11:54;2.05;;;0.93;;
24305;SDS011;12423;48.768;8.850;2024-02-23T15:14:22;1.90;;;0.93;;
24305;SDS011;12423;48.768;8.850;2024-02-23T15:16:49;1.95;;;0.57;;
24305;SDS011;12423;48.768;8.850;2024-02-23T15:19:17;6.68;;;1.10;;
24305;SDS011;12423;48.768;8.850;2024-02-23T15:21:44;4.47;;;0.80;;